Hauptseite
METAR-TAF:

METAR-TAF

Flughäfen :

Koror, Babelthuap Island, Palau

Flughafen Koror

Breite: 07-22N, Länge: 134-32E, Höhe: 54 m

Beobachtung

Neuester Wetterbericht von vor 27 Minuten, um 11:50 UTC
Windstille
Temperatur 26°C
Luftfeuchtigkeit 94%
Luftdruck 1011 hPa
Sichtweite: 24.1 km
Leicht bewölkt in der Höhe von 1600 ft
Durchbrochene Bewölkung in der Höhe von 30000 ft

METAR: PTRO 281150Z 00000KT 15SM FEW016 BKN300 26/25 A2984

Zeit: 21:17 (12:17 UTC)

Prognose

Neuester Wetterbericht von vor 57 Minuten, um 11:20 UTC
Gültige Prognose vom 28 um 12 UTC bis 29 um 12 UTC
Wind 7 kt aus Süd
Sichtweite: 10 km
Aufgelockert bewölkt in der Höhe von 1600 ft
Geschlossene Wolkendecke in der Höhe von 30000 ft
Schauer in der Nähe

TAF: PTRO 281120Z 2812/2912 19007KT P6SM VCSH SCT016 OVC300

Wetterbeobachtungen und Prognosen von mehr als 4000 Flughäfen (METAR und TAF Bericht).

Die verfügbaren Stationen werden durch gelbe und rote Markierungen auf der Karte dargestellt.

Führen Sie die Maus auf sie, um den Namen der Station zu sehen.

Darauf klicken, um die Beobachtung von Wetterbeobachtungen und Prognosen zu sehen.

Um die Karte zu ändern : klicken Sie auf den grünen Tasten mit einem schwarzen Kreuz Zum Vergrößern, auf den grünen Button mit einem Gedankenstrich zu verkleinern, oder auf die grünen Pfeile für benachbarte Karten.


METAR-TAF: